Airfield :
LOGIN :

Register | Disclaimer

   EN    FR    IT 

 










Legend :    VFR   Marginal VFR   IFR   Intensive IFR   Very Intensive IFR
Visi :
Ceiling :
>= 8 km
>= 3000ft
5 to 8 km
1000 to 3000 ft
1500m to 5 km
500 to 1000 ft
800 to 1500m
200 to 500 ft
< 800m
< 200 ft
Symbols :   Thunderstorms  Fog  Heavy snow  Heavy precipitations  Wind > 20 kt
SIGMETs :     Misc.  Thunderstorms  Icing  Turbulence  Mountain Waves  Volcanic Ashes






- Airport Elevation : 545 ft
- IATA code : PZY


LZPP - Piešťany

CURRENT METAR :
  • 292330Z AUTO 01002KT 9999 NCD 12/12 Q1009

EXPIRED METARs :
  • 292300Z AUTO VRB02KT 9999 NCD 13/12 Q1009
  • 292230Z AUTO VRB01KT 9999 NCD 13/12 Q1010
  • 292200Z AUTO 09003KT 9999 NCD 14/13 Q1010
  • 292130Z AUTO VRB01KT 9999 14/13 Q1010
  • 292030Z AUTO VRB02KT 9999 15/13 Q1010
  • 292000Z 08002KT CAVOK 16/13 Q1010
  • 291930Z 34003KT 310V040 CAVOK 17/13 Q1010
  • 291900Z 30004KT CAVOK 17/13 Q1010

TAF TAF LZPP
Valid from the 29 at 18:00 until the 30 at 03:00 UTC


291715Z 2918/3003 34010KT 9999 SCT045
BECMG 2919/2921 02004KT



MET'MAP, your aeronautical weather chart ! - Copyright ORBIFLY December 2007 - Disclaimer

ORBIFLY MET'MAP TEAM :

Programming & Development : Alexandra Zaïnal
Original concept : Baudouin d'Aumeries
Technical & hardware support : Manuel Goepfert
Assistance : Marc-Olivier Méhu




SOURCES & CREDITS :

   NOAA